createdAt,value
2019-05-20T00:04:45.281Z,157.47
2019-05-20T00:09:53.512Z,151.03
2019-05-20T00:14:59.049Z,155.67
2019-05-20T00:20:00.394Z,115.33
2019-05-20T00:25:05.899Z,126.07
2019-05-20T00:30:09.606Z,99.77
2019-05-20T00:35:11.340Z,108.60
2019-05-20T00:40:13.601Z,91.80
2019-05-20T00:45:20.677Z,111.53
2019-05-20T00:50:22.004Z,97.17
2019-05-20T00:55:29.708Z,91.37
2019-05-20T01:00:47.355Z,82.87
2019-05-20T01:05:54.584Z,69.60
2019-05-20T01:10:59.094Z,74.73
2019-05-20T01:16:03.744Z,54.17
2019-05-20T01:21:05.740Z,75.03
2019-05-20T01:26:10.258Z,69.63
2019-05-20T01:31:22.847Z,68.90
2019-05-20T01:36:33.210Z,73.67
2019-05-20T01:41:37.726Z,62.93
2019-05-20T01:46:41.045Z,61.27
2019-05-20T01:51:45.615Z,68.63
2019-05-20T01:56:51.969Z,77.27
2019-05-20T02:01:57.764Z,69.63
2019-05-20T02:07:00.210Z,68.70
2019-05-20T02:12:04.680Z,68.30
2019-05-20T02:17:21.189Z,69.80
2019-05-20T02:22:25.747Z,65.53
2019-05-20T02:27:34.395Z,59.80
2019-05-20T02:32:46.812Z,53.07
2019-05-20T02:37:51.355Z,61.00
2019-05-20T02:43:46.301Z,59.83
2019-05-20T02:48:47.801Z,57.47
2019-05-20T02:54:01.079Z,69.87
2019-05-20T02:59:05.718Z,66.53
2019-05-20T03:04:12.823Z,70.67
2019-05-20T03:09:20.837Z,61.90
2019-05-20T03:14:24.285Z,64.27
2019-05-20T03:19:25.741Z,71.07
2019-05-20T03:24:39.183Z,67.60
2019-05-20T03:29:40.700Z,74.53
2019-05-20T03:34:58.005Z,80.93
2019-05-20T03:39:59.369Z,85.80
2019-05-20T03:45:04.531Z,74.73
2019-05-20T03:50:09.520Z,67.07
2019-05-20T03:55:16.894Z,74.77
2019-05-20T04:00:42.149Z,56.53
2019-05-20T04:05:46.532Z,67.47
2019-05-20T04:10:54.192Z,67.20
2019-05-20T04:15:56.583Z,78.93
2019-05-20T04:21:01.147Z,72.97
2019-05-20T04:26:05.665Z,72.10
2019-05-20T04:31:19.442Z,68.23
2019-05-20T04:36:21.902Z,69.73
2019-05-20T04:41:26.360Z,78.17
2019-05-20T04:46:30.986Z,84.40
2019-05-20T04:51:46.853Z,87.43
2019-05-20T04:56:48.256Z,75.67
2019-05-20T05:01:55.803Z,72.00
2019-05-20T05:06:59.199Z,48.27
2019-05-20T05:12:00.678Z,60.87
2019-05-20T05:17:09.140Z,63.73
2019-05-20T05:22:16.630Z,63.47
2019-05-20T05:27:31.300Z,54.80
2019-05-20T05:32:41.997Z,84.77
2019-05-20T05:37:46.738Z,72.97
2019-05-20T05:42:48.172Z,66.17
2019-05-20T05:47:49.553Z,57.57
2019-05-20T05:52:56.240Z,57.13
2019-05-20T05:58:09.808Z,59.13
2019-05-20T06:03:24.540Z,49.20
2019-05-20T06:08:25.933Z,38.50
2019-05-20T06:13:28.368Z,42.00
2019-05-20T06:18:29.857Z,32.77
2019-05-20T06:23:31.303Z,27.87
2019-05-20T06:28:45.354Z,32.00
2019-05-20T06:33:47.044Z,21.57
2019-05-20T06:38:50.499Z,26.80
2019-05-20T06:43:52.004Z,29.07
2019-05-20T06:48:59.545Z,26.93
2019-05-20T06:54:04.236Z,33.37
2019-05-20T06:59:14.466Z,29.27
2019-05-20T07:04:24.191Z,30.57
2019-05-20T07:09:25.471Z,28.63
2019-05-20T07:14:30.023Z,32.70
2019-05-20T07:19:39.229Z,32.23
2019-05-20T07:24:40.702Z,28.73
2019-05-20T07:29:45.219Z,28.33
2019-05-20T07:34:47.624Z,28.80
2019-05-20T07:39:48.920Z,25.03
2019-05-20T07:44:51.612Z,30.97
2019-05-20T07:49:59.470Z,31.67
2019-05-20T07:55:02.470Z,27.23
2019-05-20T08:00:08.532Z,26.80
2019-05-20T08:05:16.507Z,27.80
2019-05-20T08:10:26.949Z,32.83
2019-05-20T08:15:28.433Z,26.73
2019-05-20T08:20:40.891Z,25.83
2019-05-20T08:25:48.195Z,26.33
2019-05-20T08:30:58.883Z,25.93
2019-05-20T08:36:02.450Z,22.53
2019-05-20T08:41:04.876Z,23.90
2019-05-20T08:46:07.396Z,20.53
2019-05-20T08:51:08.893Z,23.37
2019-05-20T08:56:13.337Z,26.03
2019-05-20T09:01:15.889Z,21.53
2019-05-20T09:06:23.064Z,19.30
2019-05-20T09:11:27.805Z,20.27
2019-05-20T09:16:32.194Z,18.93
2019-05-20T09:21:43.868Z,19.17
2019-05-20T09:26:52.138Z,17.77
2019-05-20T09:31:53.852Z,19.73
2019-05-20T09:36:59.399Z,18.33
2019-05-20T09:42:23.354Z,20.77
2019-05-20T09:47:30.554Z,15.53
2019-05-20T09:52:31.938Z,18.13
2019-05-20T09:57:39.065Z,13.87
2019-05-20T10:02:40.352Z,12.80
2019-05-20T10:07:41.938Z,14.20
2019-05-20T10:12:46.410Z,11.83
2019-05-20T10:17:50.038Z,13.13
2019-05-20T10:23:06.831Z,12.77
2019-05-20T10:28:08.448Z,10.20
2019-05-20T10:33:12.928Z,10.90
2019-05-20T10:38:17.507Z,9.23
2019-05-20T10:43:25.138Z,10.23
2019-05-20T10:48:26.540Z,12.33
2019-05-20T10:53:33.663Z,11.47
2019-05-20T10:58:38.179Z,13.90
2019-05-20T11:03:42.928Z,9.73
2019-05-20T11:08:45.321Z,12.53
2019-05-20T11:14:31.058Z,10.83
2019-05-20T11:19:32.561Z,11.33
2019-05-20T11:24:33.976Z,12.90
2019-05-20T11:29:38.534Z,15.63
2019-05-20T11:35:19.117Z,13.50
2019-05-20T11:40:23.800Z,12.63
2019-05-20T11:45:28.371Z,12.37
2019-05-20T11:50:29.742Z,14.67
2019-05-20T11:55:39.901Z,18.77
2019-05-20T12:00:44.470Z,15.77
2019-05-20T12:05:48.358Z,18.33
2019-05-20T12:10:50.859Z,18.30
2019-05-20T12:15:57.963Z,22.70
2019-05-20T12:21:00.459Z,19.40
2019-05-20T12:26:03.792Z,19.97
2019-05-20T12:31:07.131Z,16.93
2019-05-20T12:36:14.456Z,20.87
2019-05-20T12:41:16.794Z,19.27
2019-05-20T12:46:19.236Z,19.37
2019-05-20T12:51:24.714Z,19.33
2019-05-20T12:56:29.205Z,13.70
2019-05-20T13:01:30.878Z,16.53
2019-05-20T13:06:35.232Z,15.60
2019-05-20T13:11:36.680Z,18.57
2019-05-20T13:16:38.195Z,17.37
2019-05-20T13:21:53.482Z,17.37
2019-05-20T13:26:55.853Z,14.40
2019-05-20T13:32:03.859Z,19.30
2019-05-20T13:37:06.290Z,17.07
2019-05-20T13:42:11.254Z,16.73
2019-05-20T13:47:12.794Z,18.10
2019-05-20T13:52:20.126Z,18.07
2019-05-20T13:57:21.569Z,20.10
2019-05-20T14:02:26.134Z,16.87
2019-05-20T14:07:33.384Z,14.23
2019-05-20T14:12:44.135Z,21.63
2019-05-20T14:17:45.616Z,20.47
2019-05-20T14:22:51.540Z,23.97
2019-05-20T14:27:58.833Z,27.40
2019-05-20T14:33:01.436Z,29.37
2019-05-20T14:38:08.650Z,27.67
2019-05-20T14:43:44.465Z,29.80
2019-05-20T14:48:50.043Z,29.77
2019-05-20T14:53:51.583Z,30.90
2019-05-20T14:58:58.889Z,27.20
2019-05-20T15:04:00.258Z,36.07
2019-05-20T15:09:09.440Z,33.97
2019-05-20T15:14:10.897Z,37.37
2019-05-20T15:19:18.201Z,31.17
2019-05-20T15:24:19.647Z,34.10
2019-05-20T15:29:28.125Z,28.83
2019-05-20T15:34:37.673Z,29.33
2019-05-20T15:39:41.027Z,26.87
2019-05-20T15:44:42.459Z,24.33
2019-05-20T15:49:44.875Z,33.53
2019-05-20T15:54:54.010Z,36.27
2019-05-20T15:59:57.485Z,36.13
2019-05-20T16:05:03.062Z,39.27
2019-05-20T16:10:05.478Z,28.30
2019-05-20T16:15:07.978Z,36.60
2019-05-20T16:20:12.636Z,40.17
2019-05-20T16:25:14.381Z,39.83
2019-05-20T16:30:16.793Z,46.20
2019-05-20T16:35:20.828Z,35.03
2019-05-20T16:40:23.262Z,35.30
2019-05-20T16:45:25.633Z,27.40
2019-05-20T16:50:27.028Z,28.83
2019-05-20T16:55:30.508Z,37.40
2019-05-20T17:00:32.475Z,41.70
2019-05-20T17:05:40.118Z,43.00
2019-05-20T17:10:42.494Z,38.93
2019-05-20T17:15:47.042Z,40.93
2019-05-20T17:20:55.379Z,38.73
2019-05-20T17:25:59.863Z,42.67
2019-05-20T17:31:01.256Z,44.17
2019-05-20T17:36:04.588Z,48.50
2019-05-20T17:41:11.882Z,44.23
2019-05-20T17:46:14.505Z,38.90
2019-05-20T17:51:18.150Z,43.40
2019-05-20T17:56:22.661Z,46.77
2019-05-20T18:01:24.078Z,48.90
2019-05-20T18:06:25.497Z,65.97
2019-05-20T18:11:32.821Z,71.90
2019-05-20T18:16:41.200Z,81.40
2019-05-20T18:21:46.115Z,79.33
2019-05-20T18:27:01.629Z,80.10
2019-05-20T18:32:03.057Z,78.67
2019-05-20T18:37:05.809Z,73.80
2019-05-20T18:42:16.190Z,67.87
2019-05-20T18:47:17.651Z,58.30
2019-05-20T18:52:20.067Z,60.57
2019-05-20T18:57:21.343Z,59.33
2019-05-20T19:02:26.238Z,56.57
2019-05-20T19:07:33.612Z,59.13
2019-05-20T19:12:57.906Z,59.80
2019-05-20T19:18:01.319Z,68.07
2019-05-20T19:23:13.440Z,65.13
2019-05-20T19:28:15.944Z,70.13
2019-05-20T19:33:36.429Z,79.73
2019-05-20T19:38:44.173Z,78.43
2019-05-20T19:43:47.557Z,92.97
2019-05-20T19:48:52.067Z,90.90
2019-05-20T19:53:53.489Z,87.73
2019-05-20T19:58:54.780Z,76.10
2019-05-20T20:03:58.291Z,79.87
2019-05-20T20:09:02.251Z,74.07
2019-05-20T20:14:09.747Z,86.90
2019-05-20T20:19:13.330Z,84.87
2019-05-20T20:24:20.521Z,72.60
2019-05-20T20:29:23.914Z,86.30
2019-05-20T20:34:30.660Z,73.67
2019-05-20T20:39:34.496Z,91.47
2019-05-20T20:44:35.992Z,116.10
2019-05-20T20:49:37.532Z,108.07
2019-05-20T20:54:42.291Z,81.23
2019-05-20T20:59:43.583Z,75.00
2019-05-20T21:04:45.341Z,87.77
2019-05-20T21:09:52.752Z,99.47
2019-05-20T21:14:57.112Z,89.33
2019-05-20T21:19:59.578Z,68.17
2019-05-20T21:25:05.145Z,63.17
2019-05-20T21:30:17.736Z,58.77
2019-05-20T21:35:25.002Z,65.90
2019-05-20T21:40:26.300Z,70.67
2019-05-20T21:45:31.150Z,70.00
2019-05-20T21:50:40.495Z,70.90
2019-05-20T21:55:45.206Z,87.83
2019-05-20T22:00:54.159Z,82.43
2019-05-20T22:06:01.488Z,85.57
2019-05-20T22:11:06.170Z,71.57
2019-05-20T22:16:07.615Z,57.47
2019-05-20T22:21:14.051Z,62.63
2019-05-20T22:26:15.452Z,82.70
2019-05-20T22:31:17.877Z,86.30
2019-05-20T22:36:25.211Z,82.90
2019-05-20T22:41:26.638Z,88.23
2019-05-20T22:46:33.006Z,96.73
2019-05-20T22:51:34.329Z,96.87
2019-05-20T22:56:38.840Z,97.63
2019-05-20T23:01:51.251Z,84.77
2019-05-20T23:06:54.581Z,103.47
2019-05-20T23:12:02.305Z,117.93
2019-05-20T23:17:09.578Z,152.97
2019-05-20T23:22:10.872Z,112.40
2019-05-20T23:27:37.209Z,85.23
2019-05-20T23:32:38.763Z,107.63
2019-05-20T23:37:41.177Z,91.50
2019-05-20T23:42:57.707Z,99.07
2019-05-20T23:48:02.329Z,87.67
2019-05-20T23:53:06.994Z,90.17
2019-05-20T23:58:22.390Z,99.40
